createdAt,value
2023-01-12T00:02:23.935Z,17.33
2023-01-12T00:04:51.906Z,14.23
2023-01-12T00:07:20.596Z,14.85
2023-01-12T00:09:48.674Z,16.77
2023-01-12T00:12:16.232Z,15.48
2023-01-12T00:14:44.157Z,15.63
2023-01-12T00:17:14.455Z,16.33
2023-01-12T00:19:42.352Z,17.98
2023-01-12T00:22:12.854Z,15.57
2023-01-12T00:24:46.519Z,17.30
2023-01-12T00:27:19.193Z,18.13
2023-01-12T00:29:47.443Z,17.40
2023-01-12T00:32:18.796Z,17.05
2023-01-12T00:34:47.121Z,17.05
2023-01-12T00:37:14.835Z,16.50
2023-01-12T00:39:53.240Z,17.33
2023-01-12T00:43:05.565Z,19.35
2023-01-12T00:45:33.430Z,20.00
2023-01-12T00:48:01.142Z,18.33
2023-01-12T00:50:29.243Z,20.00
2023-01-12T00:52:56.919Z,17.67
2023-01-12T00:55:24.975Z,17.23
2023-01-12T00:57:53.559Z,20.05
2023-01-12T01:00:21.647Z,23.27
2023-01-12T01:02:49.607Z,24.88
2023-01-12T01:05:20.518Z,26.95
2023-01-12T01:07:48.235Z,30.08
2023-01-12T01:10:17.277Z,33.00
2023-01-12T01:12:45.470Z,32.40
2023-01-12T01:15:13.619Z,33.10
2023-01-12T01:17:41.334Z,32.47
2023-01-12T01:20:10.317Z,30.88
2023-01-12T01:22:37.939Z,28.48
2023-01-12T01:25:06.520Z,29.63
2023-01-12T01:27:34.112Z,30.67
2023-01-12T01:30:01.949Z,31.33
2023-01-12T01:32:29.512Z,29.65
2023-01-12T01:34:57.387Z,28.98
2023-01-12T01:37:24.916Z,29.83
2023-01-12T01:39:52.797Z,29.88
2023-01-12T01:42:29.508Z,27.65
2023-01-12T01:45:01.380Z,28.42
2023-01-12T01:47:37.907Z,28.33
2023-01-12T01:50:19.835Z,28.23
2023-01-12T01:53:12.013Z,24.27
2023-01-12T01:55:50.353Z,24.00
2023-01-12T01:58:27.171Z,23.58
2023-01-12T02:00:55.261Z,19.25
2023-01-12T02:03:25.339Z,18.40
2023-01-12T02:05:57.096Z,18.75
2023-01-12T02:08:46.138Z,16.80
2023-01-12T02:11:34.666Z,19.90
2023-01-12T02:14:21.017Z,20.10
2023-01-12T02:17:16.845Z,18.23
2023-01-12T02:20:34.266Z,19.05
2023-01-12T02:23:29.759Z,19.88
2023-01-12T02:26:39.600Z,19.48
2023-01-12T02:29:51.238Z,19.85
2023-01-12T02:32:46.260Z,18.50
2023-01-12T02:35:20.246Z,17.58
2023-01-12T02:38:36.024Z,18.85
2023-01-12T02:41:55.770Z,15.02
2023-01-12T02:47:25.804Z,15.05
2023-01-12T02:49:59.001Z,15.40
2023-01-12T02:52:30.656Z,16.30
2023-01-12T02:55:00.259Z,17.20
2023-01-12T02:57:30.587Z,16.58
2023-01-12T03:00:01.397Z,16.45
2023-01-12T03:02:30.430Z,17.88
2023-01-12T03:04:58.189Z,16.53
2023-01-12T03:07:59.080Z,14.73
2023-01-12T03:10:43.871Z,15.82
2023-01-12T03:13:16.263Z,16.83
2023-01-12T03:15:50.128Z,15.63
2023-01-12T03:18:38.523Z,14.43
2023-01-12T03:21:15.962Z,15.43
2023-01-12T03:23:50.458Z,16.38
2023-01-12T03:26:23.400Z,16.50
2023-01-12T03:29:04.197Z,16.10
2023-01-12T03:31:33.260Z,18.75
2023-01-12T03:34:01.717Z,18.00
2023-01-12T03:36:45.540Z,18.73
2023-01-12T03:39:45.520Z,18.90
2023-01-12T03:42:26.494Z,17.80
2023-01-12T03:45:27.030Z,17.45
2023-01-12T03:48:21.563Z,17.90
2023-01-12T03:51:17.070Z,17.77
2023-01-12T03:53:49.246Z,17.95
2023-01-12T03:56:20.482Z,17.67
2023-01-12T03:58:49.681Z,18.52
2023-01-12T04:03:45.385Z,18.80
2023-01-12T04:06:13.344Z,20.27
2023-01-12T04:08:40.927Z,20.27
2023-01-12T04:11:35.196Z,21.05
2023-01-12T04:14:02.800Z,19.42
2023-01-12T04:16:30.647Z,18.60
2023-01-12T04:18:58.305Z,20.13
2023-01-12T04:21:44.796Z,17.67
2023-01-12T04:24:12.545Z,19.70
2023-01-12T04:26:40.339Z,17.60
2023-01-12T04:29:07.892Z,18.30
2023-01-12T04:31:35.929Z,17.52
2023-01-12T04:34:03.664Z,16.73
2023-01-12T04:36:31.597Z,17.33
2023-01-12T04:38:59.183Z,16.67
2023-01-12T04:41:27.021Z,14.32
2023-01-12T04:43:54.564Z,15.45
2023-01-12T04:46:22.371Z,17.83
2023-01-12T04:48:50.051Z,18.85
2023-01-12T04:51:18.003Z,16.52
2023-01-12T04:53:48.193Z,18.92
2023-01-12T04:56:16.080Z,18.33
2023-01-12T04:58:43.798Z,19.40
2023-01-12T05:01:19.734Z,18.80
2023-01-12T05:03:47.366Z,19.35
2023-01-12T05:06:15.237Z,19.60
2023-01-12T05:09:01.520Z,19.35
2023-01-12T05:11:30.028Z,18.55
2023-01-12T05:13:57.974Z,18.48
2023-01-12T05:16:26.014Z,18.10
2023-01-12T05:18:54.404Z,18.52
2023-01-12T05:21:24.285Z,18.98
2023-01-12T05:23:53.345Z,17.38
2023-01-12T05:26:21.563Z,17.98
2023-01-12T05:28:50.749Z,17.15
2023-01-12T05:33:48.303Z,15.23
2023-01-12T05:36:17.299Z,17.25
2023-01-12T05:38:44.760Z,16.77
2023-01-12T05:41:15.765Z,17.95
2023-01-12T05:43:53.205Z,15.75
2023-01-12T05:46:40.251Z,17.60
2023-01-12T05:49:07.824Z,16.27
2023-01-12T05:51:35.665Z,15.77
2023-01-12T05:54:03.278Z,16.58
2023-01-12T05:56:32.896Z,18.30
2023-01-12T05:59:02.387Z,17.48
2023-01-12T06:01:31.478Z,18.80
2023-01-12T06:04:01.310Z,17.67
2023-01-12T06:06:31.529Z,16.95
2023-01-12T06:09:01.077Z,18.80
2023-01-12T06:11:51.037Z,19.25
2023-01-12T06:14:20.721Z,18.13
2023-01-12T06:16:48.609Z,20.35
2023-01-12T06:19:16.098Z,20.95
2023-01-12T06:21:43.908Z,20.88
2023-01-12T06:24:11.654Z,21.27
2023-01-12T06:26:39.618Z,21.58
2023-01-12T06:29:07.417Z,21.02
2023-01-12T06:31:35.398Z,21.80
2023-01-12T06:34:02.898Z,21.10
2023-01-12T06:36:30.728Z,22.60
2023-01-12T06:38:58.179Z,20.98
2023-01-12T06:41:44.463Z,20.80
2023-01-12T06:44:12.051Z,25.42
2023-01-12T06:46:40.244Z,21.58
2023-01-12T06:49:07.882Z,25.13
2023-01-12T06:51:35.671Z,23.98
2023-01-12T06:54:03.334Z,22.63
2023-01-12T06:56:31.267Z,23.55
2023-01-12T06:58:58.799Z,22.33
2023-01-12T07:01:27.427Z,23.38
2023-01-12T07:03:54.990Z,25.02
2023-01-12T07:06:22.844Z,26.70
2023-01-12T07:08:50.267Z,26.48
2023-01-12T07:11:18.140Z,28.40
2023-01-12T07:13:45.636Z,26.95
2023-01-12T07:16:13.721Z,25.17
2023-01-12T07:18:41.263Z,23.73
2023-01-12T07:21:10.918Z,24.35
2023-01-12T07:23:38.538Z,24.52
2023-01-12T07:26:06.347Z,25.52
2023-01-12T07:28:34.487Z,22.25
2023-01-12T07:31:04.950Z,22.10
2023-01-12T07:33:35.613Z,25.35
2023-01-12T07:36:04.592Z,30.90
2023-01-12T07:38:32.531Z,31.77
2023-01-12T07:41:04.605Z,34.40
2023-01-12T07:43:33.718Z,31.17
2023-01-12T07:48:30.837Z,30.17
2023-01-12T07:50:59.674Z,29.90
2023-01-12T07:53:27.324Z,30.55
2023-01-12T07:55:55.361Z,31.00
2023-01-12T07:58:23.040Z,31.63
2023-01-12T08:00:50.996Z,33.92
2023-01-12T08:03:18.667Z,36.05
2023-01-12T08:05:46.764Z,37.10
2023-01-12T08:08:14.304Z,37.80
2023-01-12T08:10:43.759Z,40.35
2023-01-12T08:13:11.464Z,41.25
2023-01-12T08:15:46.836Z,42.42
2023-01-12T08:18:33.986Z,38.65
2023-01-12T08:21:06.808Z,38.78
2023-01-12T08:23:45.667Z,38.22
2023-01-12T08:26:39.957Z,38.28
2023-01-12T08:29:30.000Z,37.90
2023-01-12T08:34:43.295Z,34.22
2023-01-12T08:37:16.320Z,29.17
2023-01-12T08:39:44.191Z,30.33
2023-01-12T08:42:12.180Z,27.10
2023-01-12T08:44:40.052Z,28.73
2023-01-12T08:47:19.022Z,27.27
2023-01-12T08:49:46.989Z,27.75
2023-01-12T08:52:16.574Z,28.10
2023-01-12T08:57:12.594Z,26.38
2023-01-12T08:59:40.437Z,25.23
2023-01-12T09:02:10.806Z,24.45
2023-01-12T09:04:40.473Z,21.83
2023-01-12T09:07:12.835Z,20.65
2023-01-12T09:09:40.527Z,19.70
2023-01-12T09:12:08.535Z,20.27
2023-01-12T09:14:39.191Z,18.83
2023-01-12T09:17:07.759Z,21.13
2023-01-12T09:19:35.424Z,18.90
2023-01-12T09:22:03.529Z,18.88
2023-01-12T09:24:31.128Z,20.23
2023-01-12T09:27:00.014Z,23.38
2023-01-12T09:29:27.980Z,19.30
2023-01-12T09:31:56.067Z,18.20
2023-01-12T09:34:23.814Z,17.65
2023-01-12T09:36:53.615Z,19.90
2023-01-12T09:39:28.862Z,18.60
2023-01-12T09:42:17.060Z,21.95
2023-01-12T09:45:08.741Z,22.30
2023-01-12T09:47:55.360Z,22.45
2023-01-12T09:50:28.463Z,21.85
2023-01-12T09:53:07.550Z,20.98
2023-01-12T09:56:35.277Z,22.60
2023-01-12T09:59:46.127Z,22.77
2023-01-12T10:02:14.506Z,20.65
2023-01-12T10:04:43.578Z,16.85
2023-01-12T10:07:15.259Z,14.97
2023-01-12T10:09:43.673Z,16.05
2023-01-12T10:12:34.627Z,16.83
2023-01-12T10:15:28.912Z,18.33
2023-01-12T10:18:28.841Z,17.40
2023-01-12T10:20:58.853Z,13.60
2023-01-12T10:23:28.129Z,13.52
2023-01-12T10:26:14.414Z,13.80
2023-01-12T10:28:46.654Z,10.70
2023-01-12T10:31:22.368Z,11.10
2023-01-12T10:34:10.189Z,11.23
2023-01-12T10:36:49.263Z,11.45
2023-01-12T10:39:42.707Z,10.18
2023-01-12T10:42:33.219Z,12.30
2023-01-12T10:45:16.551Z,12.10
2023-01-12T10:47:47.119Z,13.35
2023-01-12T10:50:31.865Z,13.13
2023-01-12T10:53:07.918Z,13.05
2023-01-12T10:55:40.386Z,8.32
2023-01-12T10:58:30.721Z,8.77
2023-01-12T11:00:58.625Z,8.77
2023-01-12T11:03:39.436Z,14.50
2023-01-12T11:06:31.092Z,14.25
2023-01-12T11:09:17.326Z,17.17
2023-01-12T11:11:45.099Z,18.13
2023-01-12T11:14:35.986Z,17.38
2023-01-12T11:17:56.860Z,17.17
2023-01-12T11:20:50.441Z,18.88
2023-01-12T11:23:35.393Z,18.20
2023-01-12T11:26:20.872Z,16.35
2023-01-12T11:28:53.516Z,15.50
2023-01-12T11:31:40.884Z,16.02
2023-01-12T11:34:25.197Z,18.35
2023-01-12T11:37:14.526Z,20.50
2023-01-12T11:39:45.535Z,19.77
2023-01-12T11:42:44.024Z,14.98
2023-01-12T11:45:17.222Z,14.82
2023-01-12T11:47:55.170Z,16.17
2023-01-12T11:50:33.672Z,15.70
2023-01-12T11:53:05.232Z,16.60
2023-01-12T11:55:49.584Z,14.00
2023-01-12T11:58:27.841Z,14.57
2023-01-12T12:01:20.413Z,14.02
2023-01-12T12:04:56.274Z,15.15
2023-01-12T12:08:06.137Z,12.60
2023-01-12T12:10:55.979Z,13.68
2023-01-12T12:13:37.340Z,14.32
2023-01-12T12:17:00.416Z,15.27
2023-01-12T12:19:55.288Z,17.30
2023-01-12T12:22:47.589Z,11.18
2023-01-12T12:25:31.943Z,11.48
2023-01-12T12:28:45.675Z,11.32
2023-01-12T12:31:49.906Z,11.75
2023-01-12T12:34:52.234Z,14.60
2023-01-12T12:37:30.667Z,14.07
2023-01-12T12:40:52.521Z,15.85
2023-01-12T12:43:54.041Z,17.17
2023-01-12T12:47:05.868Z,17.33
2023-01-12T12:49:37.705Z,20.60
2023-01-12T12:52:07.963Z,21.70
2023-01-12T12:54:36.780Z,20.77
2023-01-12T12:57:04.956Z,21.88
2023-01-12T12:59:32.916Z,24.05
2023-01-12T13:02:03.594Z,22.08
2023-01-12T13:04:43.275Z,21.42
2023-01-12T13:07:19.308Z,21.80
2023-01-12T13:09:48.352Z,24.30
2023-01-12T13:12:32.036Z,23.35
2023-01-12T13:15:29.463Z,25.00
2023-01-12T13:17:57.395Z,23.25
2023-01-12T13:20:50.051Z,24.52
2023-01-12T13:23:46.513Z,22.80
2023-01-12T13:26:35.382Z,20.23
2023-01-12T13:29:28.330Z,22.75
2023-01-12T13:32:23.486Z,18.45
2023-01-12T13:34:52.235Z,19.27
2023-01-12T13:37:22.309Z,20.63
2023-01-12T13:40:13.060Z,23.35
2023-01-12T13:42:59.289Z,23.67
2023-01-12T13:45:27.588Z,23.30
2023-01-12T13:47:55.143Z,24.70
2023-01-12T13:50:27.681Z,25.45
2023-01-12T13:53:00.136Z,25.35
2023-01-12T13:55:31.661Z,25.48
2023-01-12T13:58:14.639Z,23.95
2023-01-12T14:00:43.094Z,23.58
2023-01-12T14:03:40.483Z,20.38
2023-01-12T14:06:34.186Z,19.42
2023-01-12T14:09:43.630Z,21.42
2023-01-12T14:12:37.817Z,21.90
2023-01-12T14:15:53.170Z,21.63
2023-01-12T14:18:40.534Z,21.35
2023-01-12T14:21:34.831Z,22.40
2023-01-12T14:24:20.476Z,23.60
2023-01-12T14:26:48.121Z,20.23
2023-01-12T14:29:16.115Z,20.83
2023-01-12T14:31:48.611Z,22.33
2023-01-12T14:34:36.824Z,22.52
2023-01-12T14:37:22.373Z,20.70
2023-01-12T14:39:50.367Z,21.10
2023-01-12T14:42:38.727Z,19.08
2023-01-12T14:45:37.152Z,20.85
2023-01-12T14:48:28.706Z,19.38
2023-01-12T14:51:18.567Z,21.55
2023-01-12T14:53:48.295Z,21.90
2023-01-12T14:56:25.565Z,21.77
2023-01-12T14:58:54.250Z,21.08
2023-01-12T15:01:35.895Z,21.50
2023-01-12T15:04:06.773Z,19.58
2023-01-12T15:06:45.386Z,18.85
2023-01-12T15:09:34.786Z,20.25
2023-01-12T15:12:32.042Z,19.63
2023-01-12T15:15:48.694Z,18.67
2023-01-12T15:18:35.437Z,19.05
2023-01-12T15:21:23.565Z,23.00
2023-01-12T15:24:12.959Z,22.53
2023-01-12T15:26:47.946Z,23.10
2023-01-12T15:29:21.204Z,19.33
2023-01-12T15:31:48.960Z,25.90
2023-01-12T15:34:17.952Z,21.38
2023-01-12T15:36:45.361Z,23.90
2023-01-12T15:39:14.722Z,25.08
2023-01-12T15:42:01.202Z,23.25
2023-01-12T15:44:29.083Z,22.88
2023-01-12T15:46:56.578Z,25.13
2023-01-12T15:49:24.469Z,22.55
2023-01-12T15:51:52.811Z,24.27
2023-01-12T15:54:21.753Z,23.15
2023-01-12T15:56:49.349Z,25.15
2023-01-12T15:59:17.407Z,28.17
2023-01-12T16:01:49.491Z,28.02
2023-01-12T16:04:41.979Z,32.58
2023-01-12T16:07:10.565Z,26.50
2023-01-12T16:09:38.373Z,24.13
2023-01-12T16:12:06.251Z,26.60
2023-01-12T16:14:34.273Z,25.70
2023-01-12T16:17:01.713Z,25.95
2023-01-12T16:19:29.554Z,26.35
2023-01-12T16:21:57.291Z,25.60
2023-01-12T16:24:26.862Z,25.95
2023-01-12T16:26:54.640Z,26.75
2023-01-12T16:29:23.975Z,24.77
2023-01-12T16:31:51.677Z,26.63
2023-01-12T16:34:22.809Z,26.17
2023-01-12T16:36:50.679Z,25.45
2023-01-12T16:39:18.842Z,26.67
2023-01-12T16:41:46.473Z,25.17
2023-01-12T16:44:14.351Z,24.70
2023-01-12T16:46:41.946Z,24.77
2023-01-12T16:49:09.734Z,23.13
2023-01-12T16:51:37.941Z,24.77
2023-01-12T16:54:06.685Z,23.08
2023-01-12T16:56:34.411Z,27.23
2023-01-12T16:59:02.199Z,27.23
2023-01-12T17:01:30.094Z,24.88
2023-01-12T17:03:58.454Z,25.42
2023-01-12T17:06:29.082Z,26.77
2023-01-12T17:09:00.270Z,28.08
2023-01-12T17:11:28.111Z,28.50
2023-01-12T17:13:57.740Z,27.85
2023-01-12T17:18:56.800Z,26.08
2023-01-12T17:21:24.657Z,26.63
2023-01-12T17:23:53.106Z,24.67
2023-01-12T17:26:20.917Z,26.00
2023-01-12T17:28:48.978Z,26.45
2023-01-12T17:31:19.285Z,28.35
2023-01-12T17:33:48.261Z,28.65
2023-01-12T17:36:17.101Z,28.30
2023-01-12T17:38:45.004Z,31.65
2023-01-12T17:41:35.160Z,29.17
2023-01-12T17:44:05.236Z,28.52
2023-01-12T17:46:34.042Z,30.30
2023-01-12T17:49:06.793Z,30.60
2023-01-12T17:51:35.620Z,28.52
2023-01-12T17:54:07.578Z,30.42
2023-01-12T17:56:35.697Z,30.13
2023-01-12T17:59:06.052Z,30.20
2023-01-12T18:01:36.763Z,29.60
2023-01-12T18:04:05.176Z,28.90
2023-01-12T18:06:33.959Z,29.88
2023-01-12T18:09:03.577Z,33.65
2023-01-12T18:11:35.247Z,30.40
2023-01-12T18:14:05.446Z,31.10
2023-01-12T18:16:33.756Z,31.42
2023-01-12T18:19:10.297Z,31.13
2023-01-12T18:21:37.836Z,32.22
2023-01-12T18:24:06.018Z,31.27
2023-01-12T18:26:36.042Z,33.17
2023-01-12T18:29:06.500Z,31.88
2023-01-12T18:31:42.181Z,32.30
2023-01-12T18:34:11.056Z,29.05
2023-01-12T18:36:41.115Z,29.17
2023-01-12T18:39:16.235Z,28.55
2023-01-12T18:42:02.481Z,28.85
2023-01-12T18:44:32.285Z,28.98
2023-01-12T18:47:20.541Z,28.48
2023-01-12T18:49:49.089Z,27.70
2023-01-12T18:52:37.128Z,27.52
2023-01-12T18:55:06.396Z,27.63
2023-01-12T19:00:17.443Z,28.63
2023-01-12T19:02:47.071Z,28.70
2023-01-12T19:05:51.141Z,30.38
2023-01-12T19:08:37.335Z,30.60
2023-01-12T19:11:11.697Z,29.95
2023-01-12T19:13:58.244Z,32.05
2023-01-12T19:16:46.912Z,29.55
2023-01-12T19:19:14.705Z,30.77
2023-01-12T19:22:02.792Z,29.92
2023-01-12T19:24:48.621Z,31.85
2023-01-12T19:27:35.242Z,32.35
2023-01-12T19:30:03.043Z,33.53
2023-01-12T19:32:31.282Z,33.28
2023-01-12T19:35:09.927Z,34.83
2023-01-12T19:40:17.457Z,35.97
2023-01-12T19:43:04.026Z,37.20
2023-01-12T19:45:31.648Z,37.88
2023-01-12T19:47:59.643Z,36.50
2023-01-12T19:50:27.328Z,38.67
2023-01-12T19:52:56.513Z,36.42
2023-01-12T19:57:54.444Z,29.90
2023-01-12T20:00:22.511Z,29.08
2023-01-12T20:02:50.861Z,29.13
2023-01-12T20:05:22.807Z,29.20
2023-01-12T20:07:55.140Z,28.85
2023-01-12T20:10:23.495Z,31.98
2023-01-12T20:12:52.807Z,27.87
2023-01-12T20:15:21.043Z,30.52
2023-01-12T20:17:51.074Z,32.65
2023-01-12T20:20:20.155Z,32.03
2023-01-12T20:22:52.535Z,31.83
2023-01-12T20:25:22.723Z,31.13
2023-01-12T20:27:52.232Z,32.22
2023-01-12T20:30:36.897Z,33.75
2023-01-12T20:33:07.385Z,32.33
2023-01-12T20:35:35.933Z,34.90
2023-01-12T20:38:07.094Z,35.60
2023-01-12T20:40:34.777Z,35.45
2023-01-12T20:43:02.593Z,33.90
2023-01-12T20:45:33.393Z,33.22
2023-01-12T20:48:01.494Z,33.25
2023-01-12T20:50:29.082Z,32.17
2023-01-12T20:52:57.443Z,31.55
2023-01-12T20:55:25.599Z,30.58
2023-01-12T20:57:53.611Z,31.25
2023-01-12T21:00:22.218Z,30.90
2023-01-12T21:05:19.429Z,27.83
2023-01-12T21:07:48.666Z,31.08
2023-01-12T21:10:17.743Z,30.20
2023-01-12T21:12:46.486Z,29.20
2023-01-12T21:15:14.760Z,30.57
2023-01-12T21:17:42.826Z,32.63
2023-01-12T21:20:11.716Z,29.45
2023-01-12T21:22:39.534Z,29.30
2023-01-12T21:25:07.309Z,30.00
2023-01-12T21:27:35.177Z,30.45
2023-01-12T21:30:03.139Z,29.10
2023-01-12T21:32:31.203Z,29.45
2023-01-12T21:34:58.786Z,30.45
2023-01-12T21:37:26.814Z,29.70
2023-01-12T21:39:54.329Z,28.38
2023-01-12T21:42:40.716Z,27.77
2023-01-12T21:45:09.356Z,28.95
2023-01-12T21:47:37.341Z,27.57
2023-01-12T21:50:05.719Z,29.05
2023-01-12T21:52:34.311Z,27.05
2023-01-12T21:55:01.910Z,28.40
2023-01-12T21:57:30.723Z,24.90
2023-01-12T21:59:58.273Z,23.70
2023-01-12T22:02:26.336Z,20.38
2023-01-12T22:04:54.102Z,19.42
2023-01-12T22:07:25.481Z,14.32
2023-01-12T22:09:52.958Z,11.98
2023-01-12T22:12:21.642Z,14.18
2023-01-12T22:14:49.209Z,13.32
2023-01-12T22:17:17.145Z,13.55
2023-01-12T22:19:44.652Z,14.43
2023-01-12T22:22:12.501Z,13.73
2023-01-12T22:24:39.969Z,18.50
2023-01-12T22:27:07.817Z,21.77
2023-01-12T22:29:35.290Z,21.05
2023-01-12T22:32:04.383Z,23.73
2023-01-12T22:34:32.209Z,23.30
2023-01-12T22:37:00.008Z,22.98
2023-01-12T22:39:27.723Z,23.75
2023-01-12T22:41:55.831Z,24.30
2023-01-12T22:44:26.724Z,25.35
2023-01-12T22:46:54.710Z,23.63
2023-01-12T22:49:22.381Z,23.67
2023-01-12T22:51:50.180Z,25.02
2023-01-12T22:54:18.367Z,26.48
2023-01-12T22:56:46.220Z,27.67
2023-01-12T22:59:14.136Z,24.85
2023-01-12T23:01:41.967Z,24.05
2023-01-12T23:04:12.838Z,24.83
2023-01-12T23:06:41.492Z,25.00
2023-01-12T23:09:11.749Z,24.33
2023-01-12T23:11:40.374Z,25.13
2023-01-12T23:14:08.388Z,26.83
2023-01-12T23:16:36.661Z,25.00
2023-01-12T23:19:04.321Z,25.63
2023-01-12T23:21:32.289Z,25.67
2023-01-12T23:24:01.169Z,23.20
2023-01-12T23:26:33.274Z,25.02
2023-01-12T23:29:03.135Z,26.80
2023-01-12T23:31:34.062Z,27.40
2023-01-12T23:34:02.646Z,29.75
2023-01-12T23:36:31.502Z,28.40
2023-01-12T23:39:02.713Z,30.07
2023-01-12T23:41:33.877Z,27.70
2023-01-12T23:44:05.994Z,27.73
2023-01-12T23:46:40.273Z,25.05
2023-01-12T23:49:07.963Z,26.23
2023-01-12T23:51:36.693Z,28.52
2023-01-12T23:54:04.778Z,26.00
2023-01-12T23:56:33.491Z,28.52
2023-01-12T23:59:01.268Z,27.20
